Time;durP1;ratioP1;P1;durP2;ratioP2;P2;SDS_P1;SDS_P2;PMS_P1;PMS_P2;Temp;Humidity;BMP_temperature;BMP_pressure;BME280_temperature;BME280_humidity;BME280_pressure;Samples;Min_cycle;Max_cycle;Signal;HPM_P1;HPM_P2
2021/06/04 00:01:55;;;;;;;6.57;5.97;;;22.30;66.30;;;;;;10418867;28;20393;-52
2021/06/04 00:06:55;;;;;;;7.05;6.40;;;22.30;66.20;;;;;;10418638;28;20108;-50
2021/06/04 00:12:00;;;;;;;7.35;6.70;;;22.30;66.30;;;;;;10419139;28;20101;-52
2021/06/04 00:17:08;;;;;;;7.32;6.68;;;22.30;66.40;;;;;;10418367;28;20033;-48
2021/06/04 00:22:24;;;;;;;6.97;6.32;;;22.30;66.30;;;;;;10418106;28;20033;-49
2021/06/04 00:27:26;;;;;;;7.53;6.82;;;22.30;66.30;;;;;;10418220;28;20022;-49
2021/06/04 00:32:27;;;;;;;6.93;6.32;;;22.30;66.30;;;;;;10418045;28;20029;-48
2021/06/04 00:37:27;;;;;;;7.65;6.95;;;22.30;66.30;;;;;;10416066;28;20107;-51
2021/06/04 00:42:34;;;;;;;6.95;6.32;;;22.20;66.20;;;;;;10416651;28;20106;-47
2021/06/04 00:47:35;;;;;;;7.03;6.43;;;22.20;66.20;;;;;;10417505;28;20026;-50
2021/06/04 00:52:37;;;;;;;8.23;7.53;;;22.30;66.20;;;;;;10416887;28;20052;-53
2021/06/04 00:57:39;;;;;;;8.15;7.32;;;22.30;66.10;;;;;;10402068;28;20033;-53
2021/06/04 01:02:40;;;;;;;8.38;7.20;;;22.20;67.80;;;;;;10415241;28;20115;-52
2021/06/04 01:08:30;;;;;;;7.43;6.43;;;22.30;68.50;;;;;;10416425;28;20041;-51
2021/06/04 01:13:36;;;;;;;7.82;7.13;;;22.30;68.60;;;;;;10415407;28;20408;-54
2021/06/04 01:19:36;;;;;;;8.30;7.55;;;22.40;69.90;;;;;;10414736;28;20053;-52
2021/06/04 01:25:03;;;;;;;7.57;6.88;;;22.40;69.50;;;;;;10415836;28;20049;-51
2021/06/04 01:30:38;;;;;;;7.82;7.22;;;22.40;69.30;;;;;;10414659;28;20417;-50
2021/06/04 01:35:52;;;;;;;7.60;6.90;;;22.30;69.30;;;;;;10413489;28;20087;-51
2021/06/04 01:40:57;;;;;;;8.27;6.93;;;22.40;69.30;;;;;;10401716;28;20515;-51
2021/06/04 01:46:29;;;;;;;8.27;7.47;;;22.30;69.10;;;;;;10413336;28;20679;-52
2021/06/04 01:51:44;;;;;;;8.48;7.72;;;22.30;69.00;;;;;;10412513;28;20049;-51
2021/06/04 01:56:53;;;;;;;8.48;7.63;;;22.30;68.80;;;;;;10413309;28;20406;-51
2021/06/04 02:01:55;;;;;;;8.40;7.68;;;22.30;68.60;;;;;;10413151;28;20033;-49
2021/06/04 02:06:56;;;;;;;8.57;7.68;;;22.20;68.70;;;;;;10414622;28;20037;-51
2021/06/04 02:11:58;;;;;;;8.57;7.57;;;22.20;69.20;;;;;;10415156;28;20160;-49
2021/06/04 02:17:28;;;;;;;8.70;7.90;;;22.30;68.50;;;;;;10414234;28;20025;-53
2021/06/04 02:23:02;;;;;;;8.63;7.82;;;22.20;68.30;;;;;;10414342;28;20378;-50
2021/06/04 02:28:24;;;;;;;7.40;6.75;;;22.30;68.50;;;;;;10413345;28;20489;-48
2021/06/04 02:33:40;;;;;;;8.35;7.55;;;22.30;68.50;;;;;;10412925;28;20022;-49
2021/06/04 02:38:53;;;;;;;7.80;7.10;;;22.20;68.80;;;;;;10412980;28;20497;-52
2021/06/04 02:44:06;;;;;;;8.73;7.93;;;22.30;68.40;;;;;;10412497;28;20029;-51
2021/06/04 02:49:11;;;;;;;9.32;8.43;;;22.30;68.10;;;;;;10393639;28;20427;-51
2021/06/04 02:54:17;;;;;;;10.75;8.07;;;22.20;68.30;;;;;;10403161;28;20076;-51
2021/06/04 02:59:33;;;;;;;9.93;8.95;;;22.20;68.30;;;;;;10397947;28;20371;-50
2021/06/04 03:04:39;;;;;;;9.38;8.48;;;22.20;68.10;;;;;;10409025;28;20482;-48
2021/06/04 03:09:43;;;;;;;9.82;8.73;;;22.20;67.90;;;;;;10413842;28;20142;-53
2021/06/04 03:14:47;;;;;;;7.95;7.25;;;22.20;67.70;;;;;;10413799;28;20043;-52
2021/06/04 03:19:48;;;;;;;9.40;7.93;;;22.20;67.70;;;;;;10411400;28;20119;-53
2021/06/04 03:24:50;;;;;;;8.40;7.60;;;22.20;67.60;;;;;;10412449;28;20040;-50
2021/06/04 03:29:52;;;;;;;8.35;7.53;;;22.20;67.50;;;;;;10422575;28;20039;-52
2021/06/04 03:34:53;;;;;;;8.85;8.05;;;22.20;67.40;;;;;;10413280;28;20041;-49
2021/06/04 03:39:54;;;;;;;8.10;7.30;;;22.20;67.40;;;;;;10411749;28;20437;-49
2021/06/04 03:44:55;;;;;;;8.65;7.90;;;22.20;67.40;;;;;;10411614;28;20382;-50
2021/06/04 03:49:56;;;;;;;8.40;7.70;;;22.10;67.20;;;;;;10412172;28;20447;-50
2021/06/04 03:54:58;;;;;;;9.05;8.15;;;22.20;67.30;;;;;;10409453;28;20039;-50
2021/06/04 04:00:01;;;;;;;8.38;7.60;;;22.10;67.10;;;;;;10410634;28;20088;-49
2021/06/04 04:05:04;;;;;;;8.52;7.63;;;22.10;67.10;;;;;;10409993;28;20029;-52
2021/06/04 04:10:09;;;;;;;9.85;7.80;;;22.10;67.00;;;;;;10411043;28;20116;-54
2021/06/04 04:15:17;;;;;;;9.05;8.23;;;22.10;66.80;;;;;;10410868;28;20440;-52
2021/06/04 04:20:32;;;;;;;8.73;7.93;;;22.10;66.80;;;;;;10408545;28;20030;-52
2021/06/04 04:25:40;;;;;;;8.20;7.40;;;22.10;66.80;;;;;;10409355;28;20033;-51
2021/06/04 04:30:41;;;;;;;8.50;7.70;;;22.10;67.30;;;;;;10408771;28;20692;-53
2021/06/04 04:35:42;;;;;;;8.45;7.57;;;22.10;66.50;;;;;;10409331;28;20037;-48
2021/06/04 04:40:43;;;;;;;8.23;7.43;;;22.10;66.30;;;;;;10410563;28;20061;-50
2021/06/04 04:45:44;;;;;;;8.32;7.47;;;22.10;66.20;;;;;;10413154;28;20029;-51
2021/06/04 04:50:45;;;;;;;8.68;7.80;;;22.10;66.80;;;;;;10415911;28;20036;-49
2021/06/04 04:55:45;;;;;;;8.40;7.60;;;22.10;66.30;;;;;;10416954;28;20112;-49
2021/06/04 05:00:47;;;;;;;8.00;7.18;;;22.10;66.00;;;;;;10416433;28;20037;-47
2021/06/04 05:05:48;;;;;;;14.25;9.27;;;22.10;66.20;;;;;;10415832;28;20104;-45
2021/06/04 05:10:49;;;;;;;11.20;8.23;;;22.10;67.20;;;;;;10414632;28;20120;-51
2021/06/04 05:15:50;;;;;;;9.48;8.45;;;22.10;67.10;;;;;;10416785;28;20588;-46
2021/06/04 05:20:51;;;;;;;10.18;7.38;;;22.10;67.20;;;;;;10411238;28;20030;-51
2021/06/04 05:25:54;;;;;;;10.10;7.90;;;22.20;67.20;;;;;;10412145;28;20056;-49
2021/06/04 05:31:01;;;;;;;12.18;8.15;;;22.10;67.00;;;;;;10415035;28;20109;-50
2021/06/04 05:36:09;;;;;;;9.02;7.72;;;22.20;67.60;;;;;;10415324;28;20033;-45
2021/06/04 05:41:13;;;;;;;17.87;7.10;;;22.20;67.70;;;;;;10412725;28;20112;-46
2021/06/04 05:46:18;;;;;;;12.60;8.52;;;22.20;67.20;;;;;;10414273;28;20276;-48
2021/06/04 05:51:25;;;;;;;8.10;7.10;;;22.20;67.60;;;;;;10412856;28;20037;-46
2021/06/04 05:56:28;;;;;;;22.48;8.50;;;22.20;67.00;;;;;;10400919;28;20095;-45
2021/06/04 06:01:34;;;;;;;15.57;8.65;;;22.20;67.20;;;;;;10412160;28;20458;-47
2021/06/04 06:06:35;;;;;;;28.10;9.20;;;22.20;67.20;;;;;;10414502;28;20056;-50
2021/06/04 06:11:38;;;;;;;26.23;11.23;;;22.20;67.90;;;;;;10409239;28;20035;-52
2021/06/04 06:16:40;;;;;;;37.72;11.45;;;22.30;67.90;;;;;;10392250;28;20439;-52
2021/06/04 06:21:46;;;;;;;30.52;10.00;;;22.20;68.50;;;;;;10414197;28;20037;-52
2021/06/04 06:26:48;;;;;;;21.05;9.65;;;22.30;68.50;;;;;;10411701;28;20037;-52
2021/06/04 06:31:48;;;;;;;24.48;10.77;;;22.20;68.30;;;;;;10409834;28;20041;-53
2021/06/04 06:36:49;;;;;;;17.05;8.50;;;22.30;68.50;;;;;;10428505;28;20076;-51
2021/06/04 06:41:50;;;;;;;18.95;8.50;;;22.30;68.70;;;;;;10418664;28;20126;-50
2021/06/04 06:46:52;;;;;;;18.92;9.75;;;22.30;68.90;;;;;;10421827;28;20377;-52
2021/06/04 06:51:54;;;;;;;16.42;8.32;;;22.30;69.00;;;;;;10421597;28;20390;-52
2021/06/04 06:56:55;;;;;;;17.98;9.27;;;22.30;68.90;;;;;;10408212;28;20119;-52
2021/06/04 07:02:03;;;;;;;14.40;9.23;;;22.30;68.80;;;;;;10421107;28;20029;-52
2021/06/04 07:07:04;;;;;;;15.80;9.70;;;22.30;68.90;;;;;;10420824;28;20080;-52
2021/06/04 07:12:06;;;;;;;15.20;9.50;;;22.30;68.80;;;;;;10420786;28;20488;-51
2021/06/04 07:17:07;;;;;;;19.85;10.50;;;22.30;68.70;;;;;;10419640;28;20076;-53
2021/06/04 07:22:08;;;;;;;12.80;9.05;;;22.40;68.70;;;;;;10420442;28;20386;-52
2021/06/04 07:27:08;;;;;;;18.77;9.98;;;22.40;68.60;;;;;;10420120;28;20037;-52
2021/06/04 07:32:09;;;;;;;13.55;8.88;;;22.40;68.90;;;;;;10420076;28;20037;-52
2021/06/04 07:37:10;;;;;;;13.35;9.57;;;22.40;68.90;;;;;;10419891;28;20390;-51
2021/06/04 07:42:14;;;;;;;21.27;10.30;;;22.40;69.00;;;;;;10419614;28;20030;-55
2021/06/04 07:47:14;;;;;;;17.20;11.90;;;22.40;69.60;;;;;;10418253;28;20473;-55
2021/06/04 07:52:15;;;;;;;14.30;10.77;;;22.40;68.50;;;;;;10416927;28;20033;-55
2021/06/04 07:57:16;;;;;;;19.25;11.07;;;22.40;67.50;;;;;;10405517;28;20032;-55
2021/06/04 08:02:18;;;;;;;14.85;11.50;;;22.40;67.40;;;;;;10417683;28;20036;-54
2021/06/04 08:07:19;;;;;;;15.52;11.65;;;22.30;67.30;;;;;;10417697;28;20413;-54
2021/06/04 08:12:29;;;;;;;15.88;12.25;;;22.40;67.20;;;;;;10418821;28;20029;-53
2021/06/04 08:17:30;;;;;;;18.02;13.57;;;22.40;67.10;;;;;;10418088;28;20473;-53
2021/06/04 08:22:32;;;;;;;18.77;11.35;;;22.40;67.00;;;;;;10418002;28;20033;-53
2021/06/04 08:27:33;;;;;;;14.15;11.48;;;22.40;66.90;;;;;;10417905;28;20105;-53
2021/06/04 08:32:34;;;;;;;13.60;11.80;;;22.30;66.80;;;;;;10417626;28;20436;-55
2021/06/04 08:37:36;;;;;;;13.30;11.82;;;22.40;66.80;;;;;;10414051;28;20056;-54
2021/06/04 08:43:12;;;;;;;13.55;10.88;;;22.40;66.80;;;;;;10416496;28;20026;-54
2021/06/04 08:48:50;;;;;;;10.50;9.10;;;22.40;66.80;;;;;;10414103;28;20425;-56
2021/06/04 08:54:13;;;;;;;17.42;10.32;;;22.40;67.30;;;;;;10415058;28;20052;-52
2021/06/04 08:59:18;;;;;;;11.40;9.85;;;22.40;66.70;;;;;;10413862;28;20367;-49
2021/06/04 09:04:31;;;;;;;9.95;8.52;;;22.50;66.80;;;;;;10414708;28;20025;-52
2021/06/04 09:09:49;;;;;;;11.18;9.38;;;22.40;66.70;;;;;;10411843;28;20536;-45
2021/06/04 09:14:52;;;;;;;12.88;9.63;;;22.50;66.80;;;;;;10412021;28;20037;-48
2021/06/04 09:20:30;;;;;;;12.40;8.93;;;22.50;67.20;;;;;;10407133;28;20053;-51
2021/06/04 09:25:34;;;;;;;10.40;8.82;;;22.50;67.00;;;;;;10415030;28;20425;-48
2021/06/04 09:31:00;;;;;;;8.95;7.65;;;22.60;67.10;;;;;;10415149;28;20434;-54
2021/06/04 09:36:17;;;;;;;12.35;8.52;;;22.60;67.10;;;;;;10414638;28;20428;-52
2021/06/04 09:41:34;;;;;;;10.82;7.53;;;22.60;67.10;;;;;;10414609;28;20512;-52
2021/06/04 09:46:59;;;;;;;10.45;7.78;;;22.60;67.10;;;;;;10413660;28;20148;-50
2021/06/04 09:52:37;;;;;;;10.90;8.30;;;22.60;67.20;;;;;;10414348;28;20060;-54
2021/06/04 09:57:59;;;;;;;12.60;8.07;;;22.60;67.40;;;;;;10411466;28;20029;-52
2021/06/04 10:03:45;;;;;;;9.93;8.50;;;22.60;67.60;;;;;;10414260;28;20044;-52
2021/06/04 10:09:20;;;;;;;9.88;7.95;;;22.70;67.70;;;;;;10411156;28;20045;-53
2021/06/04 10:14:44;;;;;;;10.45;8.00;;;22.60;67.50;;;;;;10411170;28;20040;-51
2021/06/04 10:19:48;;;;;;;10.38;7.65;;;22.60;67.40;;;;;;10413417;28;20501;-53
2021/06/04 10:24:54;;;;;;;12.50;9.23;;;22.70;67.50;;;;;;10413828;28;20037;-51
2021/06/04 10:30:02;;;;;;;8.43;7.05;;;22.70;67.50;;;;;;10412553;28;20030;-54
2021/06/04 10:35:35;;;;;;;10.50;8.30;;;22.70;67.50;;;;;;10413769;28;20065;-54
2021/06/04 10:40:41;;;;;;;8.05;7.25;;;22.70;67.40;;;;;;10412806;28;20140;-54
2021/06/04 10:45:55;;;;;;;10.00;8.20;;;22.80;67.40;;;;;;10413663;28;20075;-51
2021/06/04 10:51:35;;;;;;;10.10;7.63;;;22.80;67.40;;;;;;10413654;28;20405;-54
2021/06/04 10:56:47;;;;;;;9.45;8.45;;;22.80;67.40;;;;;;10412806;28;20038;-54
2021/06/04 11:02:16;;;;;;;9.73;7.97;;;22.80;67.30;;;;;;10412222;28;20099;-52
2021/06/04 11:07:49;;;;;;;11.30;8.87;;;22.80;67.40;;;;;;10412271;28;20032;-55
2021/06/04 11:12:50;;;;;;;9.63;8.63;;;22.80;68.20;;;;;;10396427;28;20049;-54
2021/06/04 11:18:13;;;;;;;9.90;8.10;;;22.80;67.50;;;;;;10411478;28;20095;-55
2021/06/04 11:23:29;;;;;;;10.70;8.73;;;22.80;67.60;;;;;;10409880;28;20044;-55
2021/06/04 11:29:00;;;;;;;10.57;8.50;;;22.80;67.50;;;;;;10415791;28;20024;-55
2021/06/04 11:34:13;;;;;;;9.32;8.18;;;22.80;67.50;;;;;;10418742;28;20032;-55
2021/06/04 11:39:35;;;;;;;9.32;8.07;;;22.80;67.60;;;;;;10418422;28;20386;-57
2021/06/04 11:44:53;;;;;;;10.18;8.73;;;22.80;67.70;;;;;;10418529;28;20029;-55
2021/06/04 11:49:53;;;;;;;15.02;11.07;;;22.80;67.60;;;;;;10417600;28;20041;-56
2021/06/04 11:55:13;;;;;;;12.07;9.63;;;22.80;67.80;;;;;;10419051;28;20026;-56
2021/06/04 12:00:28;;;;;;;10.10;8.80;;;22.90;67.80;;;;;;10433621;28;20455;-56
2021/06/04 12:05:34;;;;;;;9.40;8.30;;;22.90;67.90;;;;;;10418701;28;20413;-56
2021/06/04 12:10:53;;;;;;;10.85;9.85;;;22.90;67.70;;;;;;10418762;28;20112;-53
2021/06/04 12:15:53;;;;;;;10.55;8.18;;;22.90;67.80;;;;;;10417374;28;20441;-54
2021/06/04 12:20:54;;;;;;;10.98;8.98;;;23.00;67.80;;;;;;10400797;28;20045;-51
2021/06/04 12:25:55;;;;;;;13.32;9.52;;;23.00;67.80;;;;;;10416442;28;20029;-54
2021/06/04 12:31:21;;;;;;;14.85;9.55;;;23.00;67.70;;;;;;10417674;28;20044;-52
2021/06/04 12:36:33;;;;;;;13.65;10.15;;;23.10;68.00;;;;;;10415648;28;20052;-48
2021/06/04 12:41:34;;;;;;;10.77;9.38;;;23.10;68.00;;;;;;10416770;28;20042;-52
2021/06/04 12:46:35;;;;;;;12.30;9.85;;;23.00;67.70;;;;;;10415572;28;20021;-52
2021/06/04 12:51:45;;;;;;;10.18;9.18;;;23.00;67.70;;;;;;10416413;28;20029;-49
2021/06/04 12:56:56;;;;;;;10.15;8.38;;;23.00;67.70;;;;;;10415571;28;20033;-49
2021/06/04 13:02:17;;;;;;;10.90;8.55;;;23.00;67.70;;;;;;10414886;28;20044;-48
2021/06/04 13:07:32;;;;;;;11.60;9.55;;;23.10;67.70;;;;;;10415874;28;20044;-48
2021/06/04 13:12:34;;;;;;;11.45;9.50;;;23.10;67.60;;;;;;10417200;28;20421;-50
2021/06/04 13:17:35;;;;;;;10.13;8.68;;;23.10;67.50;;;;;;10416338;28;20033;-49
2021/06/04 13:22:37;;;;;;;10.25;9.05;;;23.10;67.40;;;;;;10415611;28;20473;-47
2021/06/04 13:27:38;;;;;;;12.27;9.02;;;23.10;67.30;;;;;;10415661;28;20440;-48
2021/06/04 13:32:50;;;;;;;9.35;8.45;;;23.10;67.20;;;;;;10415592;28;20033;-47
2021/06/04 13:37:56;;;;;;;10.48;8.80;;;23.10;67.20;;;;;;10413893;28;20045;-52
2021/06/04 13:43:19;;;;;;;9.25;8.38;;;23.10;67.20;;;;;;10414132;28;20025;-50
2021/06/04 13:48:32;;;;;;;8.40;7.63;;;23.10;67.20;;;;;;10414376;28;20032;-52
2021/06/04 13:53:41;;;;;;;10.00;9.10;;;23.10;67.20;;;;;;10415243;28;20080;-50
2021/06/04 13:58:43;;;;;;;10.25;8.95;;;23.10;67.20;;;;;;10419032;28;20179;-52
2021/06/04 14:04:00;;;;;;;10.73;8.20;;;23.10;67.00;;;;;;10410078;28;20461;-54
2021/06/04 14:09:08;;;;;;;9.32;8.40;;;23.10;67.00;;;;;;10413942;28;20159;-53
2021/06/04 14:14:38;;;;;;;9.30;8.35;;;23.10;67.10;;;;;;10413919;28;20053;-53
2021/06/04 14:19:53;;;;;;;9.30;8.25;;;23.10;67.20;;;;;;10412159;28;20525;-54
2021/06/04 14:24:54;;;;;;;9.52;8.50;;;23.10;67.20;;;;;;10401934;28;20036;-54
2021/06/04 14:30:29;;;;;;;10.20;9.18;;;23.10;67.30;;;;;;10411757;28;20041;-54
2021/06/04 14:35:49;;;;;;;10.35;9.23;;;23.10;67.30;;;;;;10413173;28;20490;-54
2021/06/04 14:40:50;;;;;;;14.82;10.35;;;23.10;67.20;;;;;;10399458;28;20423;-55
2021/06/04 14:45:52;;;;;;;13.55;9.75;;;23.10;67.40;;;;;;10399430;28;20057;-56
2021/06/04 14:50:59;;;;;;;17.75;10.05;;;23.20;67.60;;;;;;10408239;28;20030;-58
2021/06/04 14:56:00;;;;;;;23.25;9.38;;;23.20;68.50;;;;;;10418679;28;20540;-55
2021/06/04 15:01:03;;;;;;;13.43;9.13;;;23.20;67.80;;;;;;10414253;28;20041;-56
2021/06/04 15:06:05;;;;;;;19.75;10.80;;;23.20;68.10;;;;;;10420073;28;20025;-55
2021/06/04 15:11:06;;;;;;;15.38;10.23;;;23.20;68.20;;;;;;10420085;28;20512;-55
2021/06/04 15:16:10;;;;;;;13.70;10.93;;;23.20;68.50;;;;;;10420586;28;20466;-55
2021/06/04 15:21:16;;;;;;;12.77;11.25;;;23.20;68.90;;;;;;10419416;28;20527;-59
2021/06/04 15:26:19;;;;;;;17.65;11.38;;;23.30;68.80;;;;;;10418687;28;20026;-59
2021/06/04 15:31:21;;;;;;;13.77;11.43;;;23.30;69.00;;;;;;10418062;28;20029;-58
2021/06/04 15:36:21;;;;;;;12.45;10.05;;;23.30;68.90;;;;;;10418048;28;20478;-59
2021/06/04 15:41:31;;;;;;;15.02;10.48;;;23.30;68.80;;;;;;10417671;28;20103;-57
2021/06/04 15:46:32;;;;;;;23.20;13.40;;;23.30;68.90;;;;;;10417749;28;20017;-56
2021/06/04 15:51:35;;;;;;;22.40;13.82;;;23.30;69.00;;;;;;10419260;28;20055;-60
2021/06/04 15:56:37;;;;;;;21.52;13.07;;;23.40;68.00;;;;;;10426770;28;20030;-59
2021/06/04 16:01:41;;;;;;;17.98;11.60;;;23.40;67.50;;;;;;10417772;28;20474;-59
2021/06/04 16:06:44;;;;;;;33.72;29.20;;;23.40;66.90;;;;;;10417989;28;20034;-60
2021/06/04 16:11:47;;;;;;;19.98;15.95;;;23.40;66.80;;;;;;10417518;28;20041;-60
2021/06/04 16:16:47;;;;;;;20.30;15.60;;;23.50;66.40;;;;;;10418285;28;20449;-60
2021/06/04 16:21:48;;;;;;;17.23;15.20;;;23.60;66.20;;;;;;10416786;28;20280;-61
2021/06/04 16:26:49;;;;;;;16.58;13.38;;;23.60;66.40;;;;;;10418162;28;20025;-61
2021/06/04 16:31:58;;;;;;;18.85;13.60;;;23.60;66.20;;;;;;10417751;28;20064;-61
2021/06/04 16:37:07;;;;;;;18.33;13.45;;;23.60;66.10;;;;;;10417050;28;20053;-61
2021/06/04 16:42:09;;;;;;;14.45;13.13;;;23.60;66.00;;;;;;10415559;28;20029;-60
2021/06/04 16:47:10;;;;;;;12.85;11.65;;;23.50;65.80;;;;;;10416380;28;20029;-61
2021/06/04 16:52:11;;;;;;;15.90;12.02;;;23.50;66.10;;;;;;10416692;28;20501;-61
2021/06/04 16:57:12;;;;;;;16.38;12.60;;;23.50;66.00;;;;;;10409784;28;20488;-61
2021/06/04 17:02:13;;;;;;;14.05;11.85;;;23.40;66.00;;;;;;10416055;28;20061;-60
2021/06/04 17:07:14;;;;;;;13.32;11.93;;;23.50;66.10;;;;;;10415757;28;20017;-60
2021/06/04 17:12:14;;;;;;;13.27;11.90;;;23.40;66.00;;;;;;10415213;28;20513;-58
2021/06/04 17:17:15;;;;;;;13.18;11.65;;;23.40;66.00;;;;;;10415654;28;20108;-60
2021/06/04 17:22:16;;;;;;;13.45;10.70;;;23.40;66.10;;;;;;10415603;28;20087;-61
2021/06/04 17:27:17;;;;;;;13.73;10.77;;;23.40;66.00;;;;;;10415926;28;20036;-60
2021/06/04 17:32:18;;;;;;;12.70;11.40;;;23.40;66.00;;;;;;10415640;28;20088;-60
2021/06/04 17:37:19;;;;;;;12.85;11.75;;;23.30;66.10;;;;;;10415043;28;20049;-60
2021/06/04 17:42:19;;;;;;;12.85;11.07;;;23.40;66.20;;;;;;10414756;28;20417;-60
2021/06/04 17:47:20;;;;;;;12.10;10.93;;;23.30;66.30;;;;;;10414540;28;20025;-60
2021/06/04 17:52:24;;;;;;;11.48;10.27;;;23.30;66.30;;;;;;10414303;28;20037;-60
2021/06/04 17:57:24;;;;;;;15.38;11.38;;;23.30;66.30;;;;;;10413768;28;20033;-61
2021/06/04 18:02:25;;;;;;;11.80;10.55;;;23.30;66.60;;;;;;10427767;28;20038;-61
2021/06/04 18:07:26;;;;;;;11.27;10.07;;;23.30;66.40;;;;;;10413373;28;20026;-61
2021/06/04 18:12:27;;;;;;;12.23;10.07;;;23.30;66.50;;;;;;10412706;28;20084;-60
2021/06/04 18:17:28;;;;;;;10.52;9.52;;;23.30;66.50;;;;;;10412025;28;20087;-60
2021/06/04 18:22:28;;;;;;;11.13;10.02;;;23.30;66.50;;;;;;10427386;28;20041;-61
2021/06/04 18:27:29;;;;;;;11.10;10.00;;;23.30;66.40;;;;;;10414025;28;20053;-60
2021/06/04 18:32:30;;;;;;;10.25;9.25;;;23.30;66.40;;;;;;10413943;28;20069;-60
2021/06/04 18:37:31;;;;;;;11.48;10.27;;;23.30;66.30;;;;;;10405341;28;20405;-60
2021/06/04 18:42:32;;;;;;;10.50;9.40;;;23.20;66.30;;;;;;10421725;28;20041;-60
2021/06/04 18:47:32;;;;;;;11.80;10.60;;;23.20;66.40;;;;;;10422179;28;20022;-61
2021/06/04 18:52:35;;;;;;;10.85;9.80;;;23.20;66.40;;;;;;10421036;28;20033;-58
2021/06/04 18:57:36;;;;;;;11.32;10.20;;;23.20;66.50;;;;;;10420125;28;20419;-61
2021/06/04 19:02:38;;;;;;;10.15;9.15;;;23.20;67.30;;;;;;10418157;28;20470;-60
2021/06/04 19:07:39;;;;;;;11.55;9.52;;;23.20;66.50;;;;;;10421188;28;20030;-60
2021/06/04 19:12:40;;;;;;;10.40;9.40;;;23.20;66.50;;;;;;10419621;28;20473;-58
2021/06/04 19:17:41;;;;;;;10.35;9.30;;;23.20;66.60;;;;;;10420159;28;20075;-60
2021/06/04 19:22:42;;;;;;;11.63;9.00;;;23.20;66.40;;;;;;10420425;28;20033;-59
2021/06/04 19:27:43;;;;;;;12.18;10.30;;;23.20;66.30;;;;;;10420218;28;20108;-60
2021/06/04 19:32:44;;;;;;;12.82;10.40;;;23.20;66.50;;;;;;10419085;28;20112;-58
2021/06/04 19:37:45;;;;;;;12.15;9.88;;;23.20;66.90;;;;;;10419343;28;20033;-60
2021/06/04 19:42:46;;;;;;;13.00;10.30;;;23.20;67.60;;;;;;10419269;28;20040;-62
2021/06/04 19:47:47;;;;;;;11.05;9.77;;;23.20;67.50;;;;;;10419606;28;20069;-62
2021/06/04 19:52:49;;;;;;;10.70;9.32;;;23.20;67.00;;;;;;10418405;28;20030;-62
2021/06/04 19:57:50;;;;;;;9.38;8.35;;;23.20;66.80;;;;;;10419036;28;20116;-62
2021/06/04 20:02:51;;;;;;;10.80;9.10;;;23.20;66.90;;;;;;10418254;28;20026;-62
2021/06/04 20:07:51;;;;;;;9.80;8.52;;;23.20;66.90;;;;;;10418130;28;20052;-62
2021/06/04 20:12:52;;;;;;;10.40;9.15;;;23.20;66.90;;;;;;10418328;28;20068;-62
2021/06/04 20:17:53;;;;;;;10.18;8.75;;;23.20;66.90;;;;;;10418033;28;20112;-62
2021/06/04 20:22:55;;;;;;;10.60;9.38;;;23.20;67.00;;;;;;10417570;28;20029;-62
2021/06/04 20:27:56;;;;;;;13.15;9.75;;;23.20;67.00;;;;;;10416047;28;20049;-63
2021/06/04 20:32:56;;;;;;;9.90;8.90;;;23.20;67.00;;;;;;10416135;28;20037;-62
2021/06/04 20:38:02;;;;;;;9.80;8.80;;;23.20;67.10;;;;;;10417338;28;21481;-62
2021/06/04 20:43:03;;;;;;;10.40;9.35;;;23.20;67.20;;;;;;10417723;28;20029;-62
2021/06/04 20:48:05;;;;;;;10.85;9.52;;;23.20;67.30;;;;;;10417160;28;20021;-62
2021/06/04 20:53:11;;;;;;;11.80;9.85;;;23.10;67.30;;;;;;10417351;28;20033;-62
2021/06/04 20:58:12;;;;;;;11.13;9.75;;;23.10;67.40;;;;;;10405711;28;20099;-61
2021/06/04 21:03:13;;;;;;;10.60;9.60;;;23.10;67.40;;;;;;10402342;28;20116;-62
2021/06/04 21:08:14;;;;;;;10.35;8.93;;;23.10;67.50;;;;;;10416633;28;20104;-62
2021/06/04 21:13:15;;;;;;;11.77;9.25;;;23.10;67.50;;;;;;10416526;28;20124;-62
2021/06/04 21:18:17;;;;;;;9.50;8.52;;;23.10;67.60;;;;;;10414873;28;20366;-61
2021/06/04 21:23:19;;;;;;;12.02;10.82;;;23.10;67.60;;;;;;10414703;28;20099;-62
2021/06/04 21:28:21;;;;;;;11.93;8.85;;;23.10;67.60;;;;;;10414666;28;20056;-62
2021/06/04 21:33:31;;;;;;;10.20;9.20;;;23.10;67.60;;;;;;10415808;28;20547;-62
2021/06/04 21:38:32;;;;;;;10.90;9.80;;;23.10;67.70;;;;;;10415202;28;20037;-62
2021/06/04 21:43:39;;;;;;;11.45;10.10;;;23.10;67.60;;;;;;10415355;28;20037;-62
2021/06/04 21:48:41;;;;;;;10.55;9.27;;;23.10;67.70;;;;;;10415053;28;20103;-63
2021/06/04 21:53:49;;;;;;;10.60;9.48;;;23.10;67.70;;;;;;10413947;28;20033;-62
2021/06/04 21:58:51;;;;;;;11.73;8.93;;;23.10;67.70;;;;;;10415134;28;20033;-62
2021/06/04 22:04:03;;;;;;;10.48;9.32;;;23.00;67.70;;;;;;10414750;28;20029;-62
2021/06/04 22:09:08;;;;;;;10.38;9.38;;;23.10;67.70;;;;;;10413879;28;20036;-62
2021/06/04 22:14:09;;;;;;;10.10;9.07;;;23.10;67.60;;;;;;10415106;28;20112;-61
2021/06/04 22:19:10;;;;;;;9.93;8.93;;;23.10;67.60;;;;;;10414452;28;20075;-61
2021/06/04 22:24:15;;;;;;;10.02;8.88;;;23.00;67.60;;;;;;10425001;28;20079;-62
2021/06/04 22:29:16;;;;;;;9.43;8.48;;;23.00;67.60;;;;;;10414293;28;20030;-62
2021/06/04 22:34:21;;;;;;;11.30;8.88;;;23.10;67.60;;;;;;10412915;28;20037;-62
2021/06/04 22:39:25;;;;;;;8.88;7.97;;;23.10;67.60;;;;;;10413864;28;20046;-62
2021/06/04 22:44:28;;;;;;;10.43;9.02;;;23.00;67.60;;;;;;10412829;28;20370;-62
2021/06/04 22:49:29;;;;;;;9.00;8.10;;;23.00;67.60;;;;;;10413959;28;20069;-61
2021/06/04 22:54:30;;;;;;;10.40;9.23;;;23.00;67.50;;;;;;10413085;28;20490;-62
2021/06/04 22:59:30;;;;;;;9.35;8.35;;;23.00;67.60;;;;;;10406366;28;20021;-62
2021/06/04 23:04:33;;;;;;;8.48;7.63;;;23.00;67.60;;;;;;10412174;28;20041;-62
2021/06/04 23:09:34;;;;;;;9.32;8.43;;;23.00;67.60;;;;;;10413710;28;20049;-62
2021/06/04 23:14:35;;;;;;;8.40;7.47;;;23.00;67.60;;;;;;10413342;28;20076;-62
2021/06/04 23:19:36;;;;;;;9.65;8.40;;;23.00;68.20;;;;;;10413044;28;20026;-62
2021/06/04 23:24:37;;;;;;;9.00;7.90;;;23.00;67.70;;;;;;10418335;28;20112;-62
2021/06/04 23:29:38;;;;;;;8.85;8.05;;;23.00;67.70;;;;;;10420646;28;20065;-62
2021/06/04 23:34:38;;;;;;;9.35;8.27;;;23.00;67.70;;;;;;10420191;28;20129;-62
2021/06/04 23:39:39;;;;;;;8.57;7.57;;;23.00;67.70;;;;;;10419933;28;20099;-62
2021/06/04 23:44:40;;;;;;;10.57;8.73;;;23.00;67.70;;;;;;10419815;28;20097;-62
2021/06/04 23:49:40;;;;;;;10.10;9.05;;;23.00;67.70;;;;;;10419961;28;20134;-62
2021/06/04 23:54:43;;;;;;;9.00;8.13;;;23.00;67.80;;;;;;10413442;28;20030;-62
2021/06/04 23:59:43;;;;;;;8.98;8.05;;;23.00;67.80;;;;;;10414027;28;20037;-62
